Time,TemperatureF,DewpointF,PressureIn,WindDirection,WindDirectionDegrees,WindSpeedMPH,WindSpeedGustMPH,Humidity,HourlyPrecipIn,Conditions,Clouds,dailyrainin,SoftwareType,DateUTC
2013-04-29 00:01:00,58.8,49.5,29.96,WNW,289,1.2,4.0,71,0.00,,,0.00,WUHU216DAVISVP2,2013-04-29 04:01:00,
2013-04-29 00:02:00,58.9,49.3,29.96,West,276,1.1,4.0,70,0.00,,,0.00,WUHU216DAVISVP2,2013-04-29 04:02:00,
2013-04-29 00:07:00,58.9,49.6,29.96,WSW,243,1.4,4.0,71,0.00,,,0.00,WUHU216DAVISVP2,2013-04-29 04:07:00,
2013-04-29 00:12:00,58.8,49.5,29.96,ESE,107,1.2,4.0,71,0.00,,,0.00,WUHU216DAVISVP2,2013-04-29 04:12:00,
2013-04-29 00:17:00,58.7,49.8,29.96,ENE,72,1.0,2.0,72,0.00,,,0.00,WUHU216DAVISVP2,2013-04-29 04:17:00,
2013-04-29 00:22:00,58.6,49.4,29.96,WSW,253,1.5,2.0,71,0.00,,,0.00,WUHU216DAVISVP2,2013-04-29 04:22:00,
2013-04-29 00:27:00,58.7,49.4,29.96,SE,146,2.0,4.0,71,0.00,,,0.00,WUHU216DAVISVP2,2013-04-29 04:27:00,
2013-04-29 00:32:00,58.9,49.3,29.96,SSW,198,1.4,5.0,70,0.00,,,0.00,WUHU216DAVISVP2,2013-04-29 04:32:00,
2013-04-29 00:37:00,58.9,49.6,29.96,SSW,205,1.8,5.0,71,0.00,,,0.00,WUHU216DAVISVP2,2013-04-29 04:37:00,
2013-04-29 00:42:00,58.8,49.5,29.96,SSW,207,1.0,4.0,71,0.00,,,0.00,WUHU216DAVISVP2,2013-04-29 04:42:00,
2013-04-29 00:47:00,58.7,49.4,29.96,ESE,104,1.8,6.0,71,0.00,,,0.00,WUHU216DAVISVP2,2013-04-29 04:47:00,
2013-04-29 00:52:00,58.8,49.5,29.96,SSW,208,2.6,6.0,71,0.00,,,0.00,WUHU216DAVISVP2,2013-04-29 04:52:00,
2013-04-29 00:57:00,58.7,49.8,29.96,ENE,67,1.2,5.0,72,0.00,,,0.00,WUHU216DAVISVP2,2013-04-29 04:57:00,
2013-04-29 01:02:00,58.7,49.4,29.96,South,183,1.2,5.0,71,0.00,,,0.00,WUHU216DAVISVP2,2013-04-29 05:02:00,
2013-04-29 01:07:00,58.8,49.5,29.96,SW,230,1.0,5.0,71,0.00,,,0.00,WUHU216DAVISVP2,2013-04-29 05:07:00,
2013-04-29 01:12:00,58.9,49.1,29.96,SSW,205,1.2,4.0,70,0.00,,,0.00,WUHU216DAVISVP2,2013-04-29 05:12:00,
2013-04-29 01:17:00,58.9,49.5,29.96,ESE,105,3.0,4.0,71,0.00,,,0.00,WUHU216DAVISVP2,2013-04-29 05:17:00,
2013-04-29 01:22:00,59.0,49.2,29.96,SW,216,1.1,4.0,70,0.00,,,0.00,WUHU216DAVISVP2,2013-04-29 05:22:00,
2013-04-29 01:27:00,58.9,49.1,29.96,ESE,120,1.0,4.0,70,0.00,,,0.00,WUHU216DAVISVP2,2013-04-29 05:27:00,
2013-04-29 01:32:00,58.9,49.1,29.95,West,269,2.0,3.0,70,0.00,,,0.00,WUHU216DAVISVP2,2013-04-29 05:32:00,
2013-04-29 01:37:00,59.0,49.2,29.96,WSW,237,1.0,5.0,70,0.00,,,0.00,WUHU216DAVISVP2,2013-04-29 05:37:00,
2013-04-29 01:42:00,59.1,49.3,29.95,West,278,2.0,5.0,70,0.00,,,0.00,WUHU216DAVISVP2,2013-04-29 05:42:00,
2013-04-29 01:47:00,59.2,49.0,29.96,SE,130,1.6,6.0,69,0.00,,,0.00,WUHU216DAVISVP2,2013-04-29 05:47:00,
2013-04-29 01:52:00,59.2,49.0,29.95,SSW,213,1.8,6.0,69,0.00,,,0.00,WUHU216DAVISVP2,2013-04-29 05:52:00,
2013-04-29 01:57:00,59.1,49.3,29.95,SW,224,1.0,5.0,70,0.00,,,0.00,WUHU216DAVISVP2,2013-04-29 05:57:00,
2013-04-29 02:02:00,58.8,49.8,29.95,SSW,200,1.0,5.0,72,0.00,,,0.00,WUHU216DAVISVP2,2013-04-29 06:02:00,
2013-04-29 02:07:00,58.5,49.5,29.95,ESE,102,1.4,2.0,72,0.00,,,0.00,WUHU216DAVISVP2,2013-04-29 06:07:00,
2013-04-29 02:12:00,58.5,49.9,29.95,ESE,106,2.0,2.0,73,0.00,,,0.00,WUHU216DAVISVP2,2013-04-29 06:12:00,
2013-04-29 02:17:00,58.5,50.0,29.95,ESE,103,1.0,3.0,73,0.00,,,0.00,WUHU216DAVISVP2,2013-04-29 06:17:00,
2013-04-29 02:22:00,58.1,50.7,29.95,ESE,118,1.5,3.0,76,0.00,,,0.00,WUHU216DAVISVP2,2013-04-29 06:22:00,
2013-04-29 02:27:00,57.6,49.8,29.95,East,82,1.7,3.0,75,0.00,,,0.00,WUHU216DAVISVP2,2013-04-29 06:27:00,
2013-04-29 02:32:00,57.4,50.7,29.95,East,93,1.0,3.0,78,0.00,,,0.00,WUHU216DAVISVP2,2013-04-29 06:32:00,
2013-04-29 02:37:00,57.0,50.9,29.95,SSE,148,0.0,3.0,80,0.00,,,0.00,WUHU216DAVISVP2,2013-04-29 06:37:00,
2013-04-29 02:42:00,56.5,50.8,29.95,SE,133,1.0,3.0,81,0.00,,,0.00,WUHU216DAVISVP2,2013-04-29 06:42:00,
2013-04-29 02:47:00,56.3,50.9,29.95,ESE,114,1.0,2.0,82,0.00,,,0.00,WUHU216DAVISVP2,2013-04-29 06:47:00,
2013-04-29 02:52:00,56.1,51.0,29.95,ESE,114,0.0,1.0,83,0.00,,,0.00,WUHU216DAVISVP2,2013-04-29 06:52:00,
2013-04-29 02:57:00,56.5,49.8,29.94,ESE,104,1.4,4.0,78,0.00,,,0.00,WUHU216DAVISVP2,2013-04-29 06:57:00,
2013-04-29 03:02:00,56.9,49.8,29.94,ESE,105,0.0,4.0,77,0.00,,,0.00,WUHU216DAVISVP2,2013-04-29 07:02:00,
2013-04-29 03:07:00,57.0,50.9,29.94,NW,313,1.4,4.0,80,0.00,,,0.00,WUHU216DAVISVP2,2013-04-29 07:07:00,
2013-04-29 03:12:00,56.6,49.5,29.94,East,94,1.5,4.0,77,0.00,,,0.00,WUHU216DAVISVP2,2013-04-29 07:12:00,
2013-04-29 03:17:00,56.6,49.5,29.94,ESE,111,0.0,2.0,77,0.00,,,0.00,WUHU216DAVISVP2,2013-04-29 07:17:00,
2013-04-29 03:22:00,56.1,49.4,29.94,SSE,167,1.0,2.0,78,0.00,,,0.00,WUHU216DAVISVP2,2013-04-29 07:22:00,
2013-04-29 03:27:00,55.8,49.1,29.94,SSE,167,0.0,2.0,78,0.00,,,0.00,WUHU216DAVISVP2,2013-04-29 07:27:00,
2013-04-29 03:32:00,55.9,49.2,29.94,East,99,1.4,3.0,78,0.00,,,0.00,WUHU216DAVISVP2,2013-04-29 07:32:00,
2013-04-29 03:37:00,55.7,49.0,29.94,WSW,254,1.0,3.0,78,0.00,,,0.00,WUHU216DAVISVP2,2013-04-29 07:37:00,
2013-04-29 03:42:00,55.2,48.9,29.94,ENE,62,1.3,3.0,79,0.00,,,0.00,WUHU216DAVISVP2,2013-04-29 07:42:00,
2013-04-29 03:47:00,54.5,48.8,29.94,ENE,62,1.0,3.0,81,0.00,,,0.00,WUHU216DAVISVP2,2013-04-29 07:47:00,
2013-04-29 03:52:00,54.1,48.8,29.94,ESE,106,1.1,2.0,82,0.00,,,0.00,WUHU216DAVISVP2,2013-04-29 07:52:00,
2013-04-29 03:57:00,53.7,48.4,29.94,ESE,122,0.0,2.0,82,0.00,,,0.00,WUHU216DAVISVP2,2013-04-29 07:57:00,
2013-04-29 04:02:00,53.6,48.3,29.94,East,86,1.0,2.0,82,0.00,,,0.00,WUHU216DAVISVP2,2013-04-29 08:02:00,
2013-04-29 04:07:00,53.3,48.3,29.94,SE,127,1.0,2.0,83,0.00,,,0.00,WUHU216DAVISVP2,2013-04-29 08:07:00,
2013-04-29 04:12:00,53.2,48.2,29.94,SE,125,0.0,2.0,83,0.00,,,0.00,WUHU216DAVISVP2,2013-04-29 08:12:00,
2013-04-29 04:17:00,52.8,48.1,29.94,SE,125,0.0,2.0,84,0.00,,,0.00,WUHU216DAVISVP2,2013-04-29 08:17:00,
2013-04-29 04:22:00,52.3,48.2,29.94,SE,126,0.0,2.0,86,0.00,,,0.00,WUHU216DAVISVP2,2013-04-29 08:22:00,
2013-04-29 04:27:00,52.1,48.0,29.94,SE,125,1.0,1.0,86,0.00,,,0.00,WUHU216DAVISVP2,2013-04-29 08:27:00,
2013-04-29 04:32:00,51.8,47.7,29.94,SE,125,0.0,1.0,86,0.00,,,0.00,WUHU216DAVISVP2,2013-04-29 08:32:00,
2013-04-29 04:37:00,51.4,47.3,29.94,SE,125,0.0,1.0,86,0.00,,,0.00,WUHU216DAVISVP2,2013-04-29 08:37:00,
2013-04-29 04:42:00,50.9,47.1,29.94,SE,126,0.0,1.0,87,0.00,,,0.00,WUHU216DAVISVP2,2013-04-29 08:42:00,
2013-04-29 04:47:00,50.5,47.1,29.94,SE,125,1.0,1.0,88,0.00,,,0.00,WUHU216DAVISVP2,2013-04-29 08:47:00,
2013-04-29 04:52:00,50.3,47.1,29.94,SE,125,0.0,1.0,89,0.00,,,0.00,WUHU216DAVISVP2,2013-04-29 08:52:00,
2013-04-29 04:57:00,49.9,47.0,29.94,SE,125,1.0,1.0,90,0.00,,,0.00,WUHU216DAVISVP2,2013-04-29 08:57:00,
2013-04-29 05:02:00,49.9,47.0,29.94,SE,125,0.0,1.0,90,0.00,,,0.00,WUHU216DAVISVP2,2013-04-29 09:02:00,
2013-04-29 05:07:00,49.7,46.8,29.94,SE,125,0.0,1.0,90,0.00,,,0.00,WUHU216DAVISVP2,2013-04-29 09:07:00,
2013-04-29 05:12:00,49.4,46.6,29.94,SE,125,0.0,1.0,90,0.00,,,0.00,WUHU216DAVISVP2,2013-04-29 09:12:00,
2013-04-29 05:17:00,49.1,46.3,29.94,SE,125,1.0,1.0,90,0.00,,,0.00,WUHU216DAVISVP2,2013-04-29 09:17:00,
2013-04-29 05:22:00,48.8,46.3,29.94,SE,125,0.0,1.0,91,0.00,,,0.00,WUHU216DAVISVP2,2013-04-29 09:22:00,
2013-04-29 05:27:00,49.0,46.8,29.94,SE,125,0.0,1.0,92,0.00,,,0.00,WUHU216DAVISVP2,2013-04-29 09:27:00,
2013-04-29 05:32:00,49.1,46.9,29.94,SE,125,0.0,1.0,92,0.00,,,0.00,WUHU216DAVISVP2,2013-04-29 09:32:00,
2013-04-29 05:37:00,48.9,46.7,29.94,SE,125,0.0,0.0,92,0.00,,,0.00,WUHU216DAVISVP2,2013-04-29 09:37:00,
2013-04-29 05:42:00,49.0,46.8,29.94,SE,126,0.0,0.0,92,0.00,,,0.00,WUHU216DAVISVP2,2013-04-29 09:42:00,
2013-04-29 05:47:00,49.1,46.8,29.94,SE,126,0.0,0.0,92,0.00,,,0.00,WUHU216DAVISVP2,2013-04-29 09:47:00,
2013-04-29 05:52:00,49.2,46.9,29.95,SE,125,0.0,0.0,92,0.00,,,0.00,WUHU216DAVISVP2,2013-04-29 09:52:00,
2013-04-29 05:57:00,49.5,47.5,29.95,SE,126,0.0,0.0,93,0.00,,,0.00,WUHU216DAVISVP2,2013-04-29 09:57:00,
2013-04-29 06:02:00,49.7,47.7,29.95,SE,126,0.0,0.0,93,0.00,,,0.00,WUHU216DAVISVP2,2013-04-29 10:02:00,
2013-04-29 06:07:00,49.8,47.5,29.95,SE,126,0.0,0.0,92,0.00,,,0.00,WUHU216DAVISVP2,2013-04-29 10:07:00,
2013-04-29 06:12:00,49.9,47.6,29.95,SE,125,0.0,0.0,92,0.00,,,0.00,WUHU216DAVISVP2,2013-04-29 10:12:00,
2013-04-29 06:17:00,50.0,47.7,29.95,SE,125,0.0,0.0,92,0.00,,,0.00,WUHU216DAVISVP2,2013-04-29 10:17:00,
2013-04-29 06:22:00,50.0,47.7,29.95,SE,125,1.0,1.0,92,0.00,,,0.00,WUHU216DAVISVP2,2013-04-29 10:22:00,
2013-04-29 06:27:00,50.2,47.9,29.95,SE,126,0.0,1.0,92,0.00,,,0.00,WUHU216DAVISVP2,2013-04-29 10:27:00,
2013-04-29 06:32:00,50.3,48.0,29.96,SE,125,0.0,1.0,92,0.00,,,0.00,WUHU216DAVISVP2,2013-04-29 10:32:00,
2013-04-29 06:37:00,50.4,48.1,29.96,SE,125,0.0,1.0,92,0.00,,,0.00,WUHU216DAVISVP2,2013-04-29 10:37:00,
2013-04-29 06:42:00,50.4,48.1,29.96,SE,125,0.0,0.0,92,0.00,,,0.00,WUHU216DAVISVP2,2013-04-29 10:42:00,
2013-04-29 06:47:00,50.4,48.1,29.96,SE,125,0.0,0.0,92,0.00,,,0.00,WUHU216DAVISVP2,2013-04-29 10:47:00,
2013-04-29 06:52:00,50.5,48.5,29.96,SE,125,0.0,1.0,93,0.00,,,0.00,WUHU216DAVISVP2,2013-04-29 10:52:00,
2013-04-29 06:57:00,50.6,48.6,29.96,SE,125,0.0,1.0,93,0.00,,,0.00,WUHU216DAVISVP2,2013-04-29 10:57:00,
2013-04-29 07:02:00,50.7,48.7,29.96,SE,126,0.0,1.0,93,0.00,,,0.00,WUHU216DAVISVP2,2013-04-29 11:02:00,
2013-04-29 07:07:00,50.8,48.8,29.96,SE,125,0.0,0.0,93,0.00,,,0.00,WUHU216DAVISVP2,2013-04-29 11:07:00,
2013-04-29 07:12:00,50.9,48.9,29.97,SE,125,0.0,0.0,93,0.00,,,0.00,WUHU216DAVISVP2,2013-04-29 11:12:00,
2013-04-29 07:17:00,51.0,49.0,29.97,SE,125,0.0,0.0,93,0.00,,,0.00,WUHU216DAVISVP2,2013-04-29 11:17:00,
2013-04-29 07:22:00,51.1,49.1,29.97,SE,125,0.0,0.0,93,0.00,,,0.00,WUHU216DAVISVP2,2013-04-29 11:22:00,
2013-04-29 07:27:00,51.2,49.2,29.97,SE,125,0.0,0.0,93,0.00,,,0.00,WUHU216DAVISVP2,2013-04-29 11:27:00,
2013-04-29 07:32:00,51.3,49.0,29.97,SE,126,0.0,0.0,92,0.00,,,0.00,WUHU216DAVISVP2,2013-04-29 11:32:00,
2013-04-29 07:37:00,51.5,49.2,29.97,SE,125,0.0,0.0,92,0.00,,,0.00,WUHU216DAVISVP2,2013-04-29 11:37:00,
2013-04-29 07:42:00,51.6,49.3,29.97,SE,125,0.0,0.0,92,0.00,,,0.00,WUHU216DAVISVP2,2013-04-29 11:42:00,
2013-04-29 07:47:00,51.7,49.4,29.98,SE,125,0.0,0.0,92,0.00,,,0.00,WUHU216DAVISVP2,2013-04-29 11:47:00,
2013-04-29 07:52:00,51.9,49.6,29.98,SE,126,0.0,0.0,92,0.00,,,0.00,WUHU216DAVISVP2,2013-04-29 11:52:00,
2013-04-29 07:57:00,52.0,49.7,29.98,SE,126,0.0,0.0,92,0.00,,,0.00,WUHU216DAVISVP2,2013-04-29 11:57:00,
2013-04-29 08:02:00,52.2,49.9,29.98,SE,125,0.0,0.0,92,0.00,,,0.00,WUHU216DAVISVP2,2013-04-29 12:02:00,
2013-04-29 08:07:00,52.4,50.1,29.99,SE,125,0.0,0.0,92,0.00,,,0.00,WUHU216DAVISVP2,2013-04-29 12:07:00,
2013-04-29 08:12:00,52.5,50.2,29.99,SE,125,0.0,1.0,92,0.00,,,0.00,WUHU216DAVISVP2,2013-04-29 12:12:00,
2013-04-29 08:17:00,52.6,50.0,29.99,SE,125,0.0,1.0,91,0.01,,,0.01,WUHU216DAVISVP2,2013-04-29 12:17:00,
2013-04-29 08:22:00,52.8,50.2,29.99,SE,125,0.0,1.0,91,0.01,,,0.01,WUHU216DAVISVP2,2013-04-29 12:22:00,
2013-04-29 08:27:00,53.0,50.4,29.99,SE,125,0.0,0.0,91,0.01,,,0.01,WUHU216DAVISVP2,2013-04-29 12:27:00,
2013-04-29 08:32:00,53.1,50.5,29.99,SE,125,0.0,0.0,91,0.01,,,0.01,WUHU216DAVISVP2,2013-04-29 12:32:00,
2013-04-29 08:37:00,53.2,50.6,29.99,SE,125,0.0,0.0,91,0.01,,,0.01,WUHU216DAVISVP2,2013-04-29 12:37:00,
2013-04-29 08:42:00,53.4,51.1,29.99,SE,125,1.0,1.0,92,0.02,,,0.02,WUHU216DAVISVP2,2013-04-29 12:42:00,
2013-04-29 08:47:00,53.6,51.3,29.99,SE,126,1.0,1.0,92,0.02,,,0.02,WUHU216DAVISVP2,2013-04-29 12:47:00,
2013-04-29 08:52:00,53.7,51.1,29.99,SE,125,0.0,1.0,91,0.02,,,0.02,WUHU216DAVISVP2,2013-04-29 12:52:00,
2013-04-29 08:57:00,53.9,51.3,29.99,SE,125,0.0,1.0,91,0.02,,,0.02,WUHU216DAVISVP2,2013-04-29 12:57:00,
2013-04-29 09:02:00,54.3,51.7,29.99,SE,125,0.0,1.0,91,0.02,,,0.02,WUHU216DAVISVP2,2013-04-29 13:02:00,
2013-04-29 09:07:00,54.7,52.1,29.99,SE,125,0.0,0.0,91,0.02,,,0.02,WUHU216DAVISVP2,2013-04-29 13:07:00,
2013-04-29 09:12:00,55.1,52.5,29.99,SE,125,0.0,1.0,91,0.02,,,0.02,WUHU216DAVISVP2,2013-04-29 13:12:00,
2013-04-29 09:17:00,55.7,53.1,29.99,SE,125,0.0,1.0,91,0.01,,,0.02,WUHU216DAVISVP2,2013-04-29 13:17:00,
2013-04-29 09:22:00,56.1,53.2,29.99,SE,125,0.0,1.0,90,0.01,,,0.02,WUHU216DAVISVP2,2013-04-29 13:22:00,
2013-04-29 09:28:00,56.5,53.6,30.00,SE,125,1.0,1.0,90,0.01,,,0.02,WUHU216DAVISVP2,2013-04-29 13:28:00,
2013-04-29 09:32:00,56.6,53.7,29.99,SE,125,1.0,1.0,90,0.01,,,0.02,WUHU216DAVISVP2,2013-04-29 13:32:00,
2013-04-29 09:38:00,56.6,53.7,30.00,SE,125,1.0,1.0,90,0.01,,,0.02,WUHU216DAVISVP2,2013-04-29 13:38:00,
2013-04-29 09:43:00,56.6,53.7,30.00,SE,125,1.0,1.0,90,0.00,,,0.02,WUHU216DAVISVP2,2013-04-29 13:43:00,
2013-04-29 09:48:00,56.8,53.9,29.99,SE,126,0.0,1.0,90,0.00,,,0.02,WUHU216DAVISVP2,2013-04-29 13:48:00,
2013-04-29 09:53:00,57.1,54.2,29.99,SE,125,1.0,1.0,90,0.00,,,0.02,WUHU216DAVISVP2,2013-04-29 13:53:00,
2013-04-29 09:58:00,57.6,54.4,29.99,SE,126,1.0,1.0,89,0.00,,,0.02,WUHU216DAVISVP2,2013-04-29 13:58:00,
2013-04-29 10:03:00,58.2,54.6,29.99,NNE,26,1.0,2.0,88,0.00,,,0.02,WUHU216DAVISVP2,2013-04-29 14:03:00,
2013-04-29 10:08:00,58.7,54.5,29.99,NW,315,1.6,3.0,86,0.00,,,0.02,WUHU216DAVISVP2,2013-04-29 14:08:00,
2013-04-29 10:13:00,59.0,54.2,29.99,WNW,291,1.5,3.0,84,0.00,,,0.02,WUHU216DAVISVP2,2013-04-29 14:13:00,
2013-04-29 10:18:00,59.2,54.4,29.99,West,260,2.0,4.0,84,0.00,,,0.02,WUHU216DAVISVP2,2013-04-29 14:18:00,
2013-04-29 10:23:00,59.4,54.9,29.99,WNW,284,1.5,4.0,85,0.00,,,0.02,WUHU216DAVISVP2,2013-04-29 14:23:00,
2013-04-29 10:28:00,59.7,54.9,29.99,WNW,291,3.0,4.0,84,0.00,,,0.02,WUHU216DAVISVP2,2013-04-29 14:28:00,
2013-04-29 10:33:00,59.8,55.0,29.99,NNW,333,2.0,4.0,84,0.00,,,0.02,WUHU216DAVISVP2,2013-04-29 14:33:00,
2013-04-29 10:38:00,59.9,54.8,29.99,WNW,293,1.4,4.0,83,0.00,,,0.02,WUHU216DAVISVP2,2013-04-29 14:38:00,
2013-04-29 10:43:00,59.9,55.1,30.00,WNW,297,1.0,4.0,84,0.00,,,0.02,WUHU216DAVISVP2,2013-04-29 14:43:00,
2013-04-29 10:48:00,59.8,54.7,30.00,NNW,328,1.1,4.0,83,0.00,,,0.02,WUHU216DAVISVP2,2013-04-29 14:48:00,
2013-04-29 10:53:00,59.9,55.1,30.00,WNW,287,1.0,4.0,84,0.00,,,0.02,WUHU216DAVISVP2,2013-04-29 14:53:00,
2013-04-29 10:58:00,60.2,55.0,30.00,West,261,1.2,4.0,83,0.00,,,0.02,WUHU216DAVISVP2,2013-04-29 14:58:00,
2013-04-29 11:03:00,60.5,55.3,30.00,West,281,2.8,6.0,83,0.00,,,0.02,WUHU216DAVISVP2,2013-04-29 15:03:00,
2013-04-29 11:08:00,60.7,55.2,30.00,WNW,282,1.5,6.0,82,0.00,,,0.02,WUHU216DAVISVP2,2013-04-29 15:08:00,
2013-04-29 11:13:00,60.7,54.9,30.00,WNW,290,3.0,6.0,81,0.00,,,0.02,WUHU216DAVISVP2,2013-04-29 15:13:00,
2013-04-29 11:18:00,60.7,55.5,30.00,WNW,295,1.7,6.0,83,0.00,,,0.02,WUHU216DAVISVP2,2013-04-29 15:18:00,
2013-04-29 11:23:00,60.6,54.8,30.00,NW,323,1.4,5.0,81,0.00,,,0.02,WUHU216DAVISVP2,2013-04-29 15:23:00,
2013-04-29 11:28:00,60.8,55.3,30.00,WNW,293,3.0,5.0,82,0.00,,,0.02,WUHU216DAVISVP2,2013-04-29 15:28:00,
2013-04-29 11:33:00,60.8,54.6,30.00,WNW,296,2.1,5.0,80,0.00,,,0.02,WUHU216DAVISVP2,2013-04-29 15:33:00,
2013-04-29 11:38:00,61.0,55.2,30.00,NW,315,1.4,5.0,81,0.00,,,0.02,WUHU216DAVISVP2,2013-04-29 15:38:00,
2013-04-29 11:43:00,61.5,56.0,30.00,NNW,328,2.0,5.0,82,0.00,,,0.02,WUHU216DAVISVP2,2013-04-29 15:43:00,
2013-04-29 11:48:00,61.9,55.4,30.00,NNW,333,3.0,5.0,79,0.00,,,0.02,WUHU216DAVISVP2,2013-04-29 15:48:00,
2013-04-29 11:53:00,61.8,54.9,30.00,NW,317,2.3,5.0,78,0.00,,,0.02,WUHU216DAVISVP2,2013-04-29 15:53:00,
2013-04-29 11:58:00,61.8,55.3,30.00,ENE,67,3.0,5.0,79,0.00,,,0.02,WUHU216DAVISVP2,2013-04-29 15:58:00,
2013-04-29 12:03:00,61.8,55.6,30.00,WNW,293,3.0,5.0,80,0.00,,,0.02,WUHU216DAVISVP2,2013-04-29 16:03:00,
2013-04-29 12:08:00,61.8,54.9,30.00,WNW,295,3.0,4.0,78,0.00,,,0.02,WUHU216DAVISVP2,2013-04-29 16:08:00,
2013-04-29 12:13:00,61.7,55.5,30.00,SW,215,2.0,4.0,80,0.00,,,0.02,WUHU216DAVISVP2,2013-04-29 16:13:00,
2013-04-29 12:18:00,61.9,55.4,30.00,NW,312,4.0,6.0,79,0.00,,,0.02,WUHU216DAVISVP2,2013-04-29 16:18:00,
2013-04-29 12:23:00,62.1,54.9,29.99,NW,309,2.0,7.0,77,0.00,,,0.02,WUHU216DAVISVP2,2013-04-29 16:23:00,
2013-04-29 12:28:00,62.5,55.6,29.99,WSW,255,5.0,7.0,78,0.00,,,0.02,WUHU216DAVISVP2,2013-04-29 16:28:00,
2013-04-29 12:33:00,62.6,55.0,29.99,WSW,252,4.0,8.0,76,0.00,,,0.02,WUHU216DAVISVP2,2013-04-29 16:33:00,
2013-04-29 12:38:00,62.8,55.2,29.99,WSW,246,3.2,8.0,76,0.00,,,0.02,WUHU216DAVISVP2,2013-04-29 16:38:00,
2013-04-29 12:43:00,62.7,55.1,29.99,WNW,299,4.0,9.0,76,0.00,,,0.02,WUHU216DAVISVP2,2013-04-29 16:43:00,
2013-04-29 12:48:00,62.6,55.0,29.99,WNW,299,7.0,9.0,76,0.00,,,0.02,WUHU216DAVISVP2,2013-04-29 16:48:00,
2013-04-29 12:53:00,62.1,54.9,29.99,WNW,297,3.0,9.0,77,0.00,,,0.02,WUHU216DAVISVP2,2013-04-29 16:53:00,
2013-04-29 12:58:00,62.2,55.3,29.99,West,270,3.0,9.0,78,0.00,,,0.02,WUHU216DAVISVP2,2013-04-29 16:58:00,
2013-04-29 13:03:00,62.4,55.2,29.99,West,264,2.4,9.0,77,0.00,,,0.02,WUHU216DAVISVP2,2013-04-29 17:03:00,
2013-04-29 13:08:00,62.4,54.8,29.99,WSW,237,5.0,8.0,76,0.00,,,0.02,WUHU216DAVISVP2,2013-04-29 17:08:00,
2013-04-29 13:13:00,62.0,55.1,29.99,WNW,294,3.8,11.0,78,0.00,,,0.02,WUHU216DAVISVP2,2013-04-29 17:13:00,
2013-04-29 13:18:00,61.7,55.2,29.99,WSW,257,6.0,11.0,79,0.00,,,0.02,WUHU216DAVISVP2,2013-04-29 17:18:00,
2013-04-29 13:23:00,61.5,55.3,29.99,WSW,243,3.7,11.0,80,0.00,,,0.02,WUHU216DAVISVP2,2013-04-29 17:23:00,
2013-04-29 13:28:00,61.4,55.6,29.99,WSW,255,2.0,11.0,81,0.00,,,0.02,WUHU216DAVISVP2,2013-04-29 17:28:00,
2013-04-29 13:33:00,61.3,55.5,29.99,West,279,1.8,7.0,81,0.00,,,0.02,WUHU216DAVISVP2,2013-04-29 17:33:00,
2013-04-29 13:38:00,61.3,55.1,29.99,WSW,241,1.6,6.0,80,0.00,,,0.02,WUHU216DAVISVP2,2013-04-29 17:38:00,
2013-04-29 13:43:00,61.4,55.6,29.99,West,265,2.2,7.0,81,0.00,,,0.02,WUHU216DAVISVP2,2013-04-29 17:43:00,
2013-04-29 13:48:00,61.7,55.5,29.99,East,89,3.0,7.0,80,0.00,,,0.02,WUHU216DAVISVP2,2013-04-29 17:48:00,
2013-04-29 13:53:00,62.1,55.2,29.99,West,266,1.7,7.0,78,0.00,,,0.02,WUHU216DAVISVP2,2013-04-29 17:53:00,
2013-04-29 13:58:00,62.5,55.6,29.99,East,82,1.0,4.0,78,0.00,,,0.02,WUHU216DAVISVP2,2013-04-29 17:58:00,
2013-04-29 14:03:00,63.0,56.5,29.99,WSW,249,1.9,4.0,79,0.00,,,0.02,WUHU216DAVISVP2,2013-04-29 18:03:00,
2013-04-29 14:08:00,63.1,55.5,29.99,WSW,255,2.0,4.0,76,0.00,,,0.02,WUHU216DAVISVP2,2013-04-29 18:08:00,
2013-04-29 14:13:00,62.9,56.0,29.99,WNW,282,2.0,6.0,78,0.00,,,0.02,WUHU216DAVISVP2,2013-04-29 18:13:00,
2013-04-29 14:18:00,63.0,55.8,29.99,SSW,200,1.3,6.0,77,0.00,,,0.02,WUHU216DAVISVP2,2013-04-29 18:18:00,
2013-04-29 14:23:00,63.1,55.5,29.99,ESE,105,2.3,6.0,76,0.00,,,0.02,WUHU216DAVISVP2,2013-04-29 18:23:00,
2013-04-29 14:28:00,63.0,55.4,29.99,SSW,207,1.1,6.0,76,0.00,,,0.02,WUHU216DAVISVP2,2013-04-29 18:28:00,
2013-04-29 14:33:00,63.2,55.6,29.99,WSW,250,4.0,5.0,76,0.00,,,0.02,WUHU216DAVISVP2,2013-04-29 18:33:00,
2013-04-29 14:38:00,63.5,56.6,29.99,West,267,2.0,5.0,78,0.00,,,0.02,WUHU216DAVISVP2,2013-04-29 18:38:00,
2013-04-29 14:43:00,63.7,55.7,29.99,West,275,2.8,5.0,75,0.00,,,0.02,WUHU216DAVISVP2,2013-04-29 18:43:00,
2013-04-29 14:48:00,64.1,56.8,29.99,SE,135,2.1,5.0,77,0.00,,,0.02,WUHU216DAVISVP2,2013-04-29 18:48:00,
2013-04-29 14:53:00,64.5,56.0,29.99,West,277,1.3,5.0,74,0.00,,,0.02,WUHU216DAVISVP2,2013-04-29 18:53:00,
2013-04-29 14:58:00,65.0,56.3,29.98,West,274,1.0,5.0,73,0.00,,,0.02,WUHU216DAVISVP2,2013-04-29 18:58:00,
2013-04-29 15:03:00,65.6,57.1,29.98,SE,142,5.0,6.0,74,0.00,,,0.02,WUHU216DAVISVP2,2013-04-29 19:03:00,
2013-04-29 15:08:00,65.3,55.3,29.98,WSW,241,4.0,8.0,70,0.00,,,0.02,WUHU216DAVISVP2,2013-04-29 19:08:00,
2013-04-29 15:13:00,65.5,55.8,29.98,East,94,2.0,8.0,71,0.00,,,0.02,WUHU216DAVISVP2,2013-04-29 19:13:00,
2013-04-29 15:18:00,65.8,55.3,29.97,WSW,241,1.6,8.0,69,0.00,,,0.02,WUHU216DAVISVP2,2013-04-29 19:18:00,
2013-04-29 15:23:00,66.6,56.5,29.97,West,266,2.0,8.0,70,0.00,,,0.02,WUHU216DAVISVP2,2013-04-29 19:23:00,
2013-04-29 15:28:00,66.9,55.6,29.97,WSW,243,3.0,5.0,67,0.00,,,0.02,WUHU216DAVISVP2,2013-04-29 19:28:00,
2013-04-29 15:33:00,66.8,55.5,29.97,WNW,301,1.6,5.0,67,0.00,,,0.02,WUHU216DAVISVP2,2013-04-29 19:33:00,
2013-04-29 15:38:00,67.4,56.2,29.96,WNW,302,3.1,6.0,67,0.00,,,0.02,WUHU216DAVISVP2,2013-04-29 19:38:00,
2013-04-29 15:43:00,67.4,55.8,29.96,West,277,3.6,9.0,66,0.00,,,0.02,WUHU216DAVISVP2,2013-04-29 19:43:00,
2013-04-29 15:48:00,68.1,54.8,29.96,WNW,288,2.6,9.0,62,0.00,,,0.02,WUHU216DAVISVP2,2013-04-29 19:48:00,
2013-04-29 15:53:00,69.1,55.7,29.95,WSW,246,4.0,9.0,62,0.00,,,0.02,WUHU216DAVISVP2,2013-04-29 19:53:00,
2013-04-29 15:58:00,69.0,54.7,29.95,SSE,165,1.5,9.0,60,0.00,,,0.02,WUHU216DAVISVP2,2013-04-29 19:58:00,
2013-04-29 16:03:00,69.1,55.7,29.95,WNW,288,2.0,7.0,62,0.00,,,0.02,WUHU216DAVISVP2,2013-04-29 20:03:00,
2013-04-29 16:08:00,68.6,55.2,29.95,WSW,243,4.0,7.0,62,0.00,,,0.02,WUHU216DAVISVP2,2013-04-29 20:08:00,
2013-04-29 16:13:00,68.2,54.4,29.95,West,261,3.2,6.0,61,0.00,,,0.02,WUHU216DAVISVP2,2013-04-29 20:13:00,
2013-04-29 16:18:00,67.6,54.3,29.95,West,263,3.1,6.0,62,0.00,,,0.02,WUHU216DAVISVP2,2013-04-29 20:18:00,
2013-04-29 16:23:00,67.3,54.9,29.95,WSW,257,3.7,7.0,64,0.00,,,0.02,WUHU216DAVISVP2,2013-04-29 20:23:00,
2013-04-29 16:28:00,67.2,54.8,29.95,West,274,3.0,7.0,64,0.00,,,0.02,WUHU216DAVISVP2,2013-04-29 20:28:00,
2013-04-29 16:33:00,67.6,54.7,29.95,SSE,163,2.0,7.0,63,0.00,,,0.02,WUHU216DAVISVP2,2013-04-29 20:33:00,
2013-04-29 16:38:00,68.0,54.7,29.95,SSW,207,3.0,7.0,62,0.00,,,0.02,WUHU216DAVISVP2,2013-04-29 20:38:00,
2013-04-29 16:43:00,68.3,54.5,29.95,West,280,3.2,5.0,61,0.00,,,0.02,WUHU216DAVISVP2,2013-04-29 20:43:00,
2013-04-29 16:48:00,68.7,54.9,29.95,WSW,242,2.4,5.0,61,0.00,,,0.02,WUHU216DAVISVP2,2013-04-29 20:48:00,
2013-04-29 16:53:00,69.9,56.0,29.94,West,262,2.0,5.0,61,0.00,,,0.02,WUHU216DAVISVP2,2013-04-29 20:53:00,
2013-04-29 16:58:00,70.4,54.6,29.94,SSW,213,2.7,7.0,57,0.00,,,0.02,WUHU216DAVISVP2,2013-04-29 20:58:00,
2013-04-29 17:03:00,70.7,53.9,29.95,WSW,256,6.0,7.0,55,0.00,,,0.02,WUHU216DAVISVP2,2013-04-29 21:03:00,
2013-04-29 17:08:00,70.0,54.7,29.95,SW,232,1.9,7.0,58,0.00,,,0.02,WUHU216DAVISVP2,2013-04-29 21:08:00,
2013-04-29 17:13:00,70.4,55.1,29.94,WSW,237,2.1,7.0,58,0.00,,,0.02,WUHU216DAVISVP2,2013-04-29 21:13:00,
2013-04-29 17:18:00,70.1,53.8,29.94,West,265,3.4,7.0,56,0.00,,,0.02,WUHU216DAVISVP2,2013-04-29 21:18:00,
2013-04-29 17:23:00,69.2,53.0,29.94,WSW,253,3.0,7.0,56,0.00,,,0.02,WUHU216DAVISVP2,2013-04-29 21:23:00,
2013-04-29 17:28:00,68.9,53.7,29.94,WSW,257,2.0,7.0,58,0.00,,,0.02,WUHU216DAVISVP2,2013-04-29 21:28:00,
2013-04-29 17:33:00,68.7,53.5,29.94,WNW,291,1.4,6.0,58,0.00,,,0.02,WUHU216DAVISVP2,2013-04-29 21:33:00,
2013-04-29 17:38:00,68.5,54.2,29.94,WNW,283,3.0,5.0,60,0.00,,,0.02,WUHU216DAVISVP2,2013-04-29 21:38:00,
2013-04-29 17:43:00,68.6,53.4,29.94,WSW,243,3.1,9.0,58,0.00,,,0.02,WUHU216DAVISVP2,2013-04-29 21:43:00,
2013-04-29 17:48:00,68.4,54.1,29.94,WSW,246,2.3,9.0,60,0.00,,,0.02,WUHU216DAVISVP2,2013-04-29 21:48:00,
2013-04-29 17:53:00,68.1,53.4,29.94,WSW,240,2.3,8.0,59,0.00,,,0.02,WUHU216DAVISVP2,2013-04-29 21:53:00,
2013-04-29 17:58:00,68.0,53.3,29.94,WSW,250,2.1,8.0,59,0.00,,,0.02,WUHU216DAVISVP2,2013-04-29 21:58:00,
2013-04-29 18:03:00,67.7,53.9,29.94,WSW,257,1.4,6.0,61,0.00,,,0.02,WUHU216DAVISVP2,2013-04-29 22:03:00,
2013-04-29 18:08:00,67.4,53.2,29.95,SW,229,4.0,8.0,60,0.00,,,0.02,WUHU216DAVISVP2,2013-04-29 22:08:00,
2013-04-29 18:13:00,67.1,52.9,29.95,WSW,254,2.2,8.0,60,0.00,,,0.02,WUHU216DAVISVP2,2013-04-29 22:13:00,
2013-04-29 18:18:00,67.1,53.4,29.95,SW,221,1.7,7.0,61,0.00,,,0.02,WUHU216DAVISVP2,2013-04-29 22:18:00,
2013-04-29 18:23:00,67.0,53.7,29.95,West,280,2.0,7.0,62,0.00,,,0.02,WUHU216DAVISVP2,2013-04-29 22:23:00,
2013-04-29 18:28:00,66.8,53.5,29.95,WSW,254,2.1,6.0,62,0.00,,,0.02,WUHU216DAVISVP2,2013-04-29 22:28:00,
2013-04-29 18:33:00,67.0,54.2,29.95,WSW,245,2.0,5.0,63,0.00,,,0.02,WUHU216DAVISVP2,2013-04-29 22:33:00,
2013-04-29 18:38:00,66.9,54.1,29.95,WSW,245,1.3,5.0,63,0.00,,,0.02,WUHU216DAVISVP2,2013-04-29 22:38:00,
2013-04-29 18:43:00,66.7,53.9,29.95,WSW,254,2.3,4.0,63,0.00,,,0.02,WUHU216DAVISVP2,2013-04-29 22:43:00,
2013-04-29 18:48:00,66.6,53.8,29.95,WSW,248,1.9,5.0,63,0.00,,,0.02,WUHU216DAVISVP2,2013-04-29 22:48:00,
2013-04-29 18:53:00,66.5,54.1,29.95,WSW,249,2.0,5.0,64,0.00,,,0.02,WUHU216DAVISVP2,2013-04-29 22:53:00,
2013-04-29 18:58:00,66.3,53.9,29.95,WSW,254,2.4,4.0,64,0.00,,,0.02,WUHU216DAVISVP2,2013-04-29 22:58:00,
2013-04-29 19:03:00,66.4,54.5,29.95,West,267,1.8,4.0,65,0.00,,,0.02,WUHU216DAVISVP2,2013-04-29 23:03:00,
2013-04-29 19:09:00,66.7,54.7,29.96,WNW,292,1.7,4.0,65,0.00,,,0.02,WUHU216DAVISVP2,2013-04-29 23:09:00,
2013-04-29 19:13:00,66.7,54.7,29.96,North,356,1.7,4.0,65,0.00,,,0.02,WUHU216DAVISVP2,2013-04-29 23:13:00,
2013-04-29 19:18:00,66.2,54.7,29.96,WNW,302,1.0,3.0,66,0.00,,,0.02,WUHU216DAVISVP2,2013-04-29 23:18:00,
2013-04-29 19:23:00,65.9,54.8,29.96,WNW,302,0.0,3.0,67,0.00,,,0.02,WUHU216DAVISVP2,2013-04-29 23:23:00,
2013-04-29 19:28:00,65.6,54.5,29.96,West,277,2.0,3.0,67,0.00,,,0.02,WUHU216DAVISVP2,2013-04-29 23:28:00,
2013-04-29 19:33:00,65.3,54.6,29.96,WNW,285,1.3,3.0,68,0.00,,,0.02,WUHU216DAVISVP2,2013-04-29 23:33:00,
2013-04-29 19:38:00,65.1,54.4,29.96,West,281,1.0,3.0,68,0.00,,,0.02,WUHU216DAVISVP2,2013-04-29 23:38:00,
2013-04-29 19:43:00,64.9,54.2,29.96,WNW,300,1.5,3.0,68,0.00,,,0.02,WUHU216DAVISVP2,2013-04-29 23:43:00,
2013-04-29 19:48:00,64.7,54.1,29.96,WNW,290,1.0,3.0,68,0.00,,,0.02,WUHU216DAVISVP2,2013-04-29 23:48:00,
2013-04-29 19:54:00,64.5,53.5,29.97,West,272,1.2,3.0,67,0.00,,,0.02,WUHU216DAVISVP2,2013-04-29 23:54:00,
2013-04-29 19:58:00,64.5,53.5,29.97,West,277,1.0,3.0,67,0.00,,,0.02,WUHU216DAVISVP2,2013-04-29 23:58:00,
2013-04-29 20:03:00,64.2,53.2,29.97,SW,236,1.0,3.0,67,0.00,,,0.02,WUHU216DAVISVP2,2013-04-30 00:03:00,
2013-04-29 20:08:00,64.2,53.0,29.97,WSW,253,1.0,3.0,67,0.00,,,0.02,WUHU216DAVISVP2,2013-04-30 00:08:00,
2013-04-29 20:13:00,64.1,53.3,29.97,West,277,1.1,3.0,68,0.00,,,0.02,WUHU216DAVISVP2,2013-04-30 00:13:00,
2013-04-29 20:18:00,63.7,54.6,29.97,WSW,251,0.0,2.0,72,0.00,,,0.02,WUHU216DAVISVP2,2013-04-30 00:18:00,
2013-04-29 20:23:00,63.2,54.5,29.98,WSW,251,0.0,2.0,73,0.00,,,0.02,WUHU216DAVISVP2,2013-04-30 00:23:00,
2013-04-29 20:29:00,62.7,54.4,29.98,WSW,252,0.0,2.0,74,0.00,,,0.02,WUHU216DAVISVP2,2013-04-30 00:29:00,
2013-04-29 20:34:00,62.3,54.7,29.98,WSW,251,0.0,1.0,76,0.00,,,0.02,WUHU216DAVISVP2,2013-04-30 00:34:00,
2013-04-29 20:39:00,61.9,55.0,29.98,WSW,252,0.0,0.0,78,0.00,,,0.02,WUHU216DAVISVP2,2013-04-30 00:39:00,
2013-04-29 20:44:00,61.6,54.8,29.98,WSW,252,0.0,0.0,78,0.00,,,0.02,WUHU216DAVISVP2,2013-04-30 00:44:00,
2013-04-29 20:49:00,61.3,54.8,29.98,WSW,251,0.0,0.0,79,0.00,,,0.02,WUHU216DAVISVP2,2013-04-30 00:49:00,
2013-04-29 20:54:00,61.0,54.8,29.98,WSW,251,0.0,0.0,80,0.00,,,0.02,WUHU216DAVISVP2,2013-04-30 00:54:00,
2013-04-29 20:59:00,60.8,54.6,29.98,WSW,252,0.0,0.0,80,0.00,,,0.02,WUHU216DAVISVP2,2013-04-30 00:59:00,
2013-04-29 21:04:00,60.7,54.6,29.98,WSW,252,0.0,0.0,80,0.00,,,0.02,WUHU216DAVISVP2,2013-04-30 01:04:00,
2013-04-29 21:09:00,60.5,54.6,29.99,WSW,252,0.0,0.0,81,0.00,,,0.02,WUHU216DAVISVP2,2013-04-30 01:09:00,
2013-04-29 21:14:00,60.0,54.5,29.99,WSW,252,0.0,0.0,82,0.00,,,0.02,WUHU216DAVISVP2,2013-04-30 01:14:00,
2013-04-29 21:19:00,59.6,54.5,29.99,WSW,251,0.0,0.0,83,0.00,,,0.02,WUHU216DAVISVP2,2013-04-30 01:19:00,
2013-04-29 21:24:00,59.4,54.3,29.99,WSW,251,0.0,0.0,83,0.00,,,0.02,WUHU216DAVISVP2,2013-04-30 01:24:00,
2013-04-29 21:29:00,59.1,54.3,29.99,WSW,252,0.0,0.0,84,0.00,,,0.02,WUHU216DAVISVP2,2013-04-30 01:29:00,
2013-04-29 21:34:00,58.9,54.4,30.00,WSW,251,0.0,0.0,85,0.00,,,0.02,WUHU216DAVISVP2,2013-04-30 01:34:00,
2013-04-29 21:39:00,58.6,54.4,30.00,WSW,252,0.0,0.0,86,0.00,,,0.02,WUHU216DAVISVP2,2013-04-30 01:39:00,
2013-04-29 21:44:00,58.4,53.9,30.00,WSW,251,0.0,0.0,85,0.00,,,0.02,WUHU216DAVISVP2,2013-04-30 01:44:00,
2013-04-29 21:49:00,58.5,54.0,30.00,WSW,252,0.0,0.0,85,0.00,,,0.02,WUHU216DAVISVP2,2013-04-30 01:49:00,
2013-04-29 21:54:00,58.6,54.1,30.00,WSW,252,0.0,0.0,85,0.00,,,0.02,WUHU216DAVISVP2,2013-04-30 01:54:00,
2013-04-29 21:59:00,58.4,53.9,30.00,WSW,252,0.0,0.0,85,0.00,,,0.02,WUHU216DAVISVP2,2013-04-30 01:59:00,
2013-04-29 22:04:00,58.3,53.8,30.00,WSW,251,0.0,0.0,85,0.00,,,0.02,WUHU216DAVISVP2,2013-04-30 02:04:00,
2013-04-29 22:09:00,58.0,53.8,30.00,WSW,252,0.0,0.0,86,0.00,,,0.02,WUHU216DAVISVP2,2013-04-30 02:09:00,
2013-04-29 22:14:00,57.7,53.9,30.00,WSW,252,0.0,0.0,87,0.00,,,0.02,WUHU216DAVISVP2,2013-04-30 02:14:00,
2013-04-29 22:19:00,57.4,53.9,30.00,WSW,252,1.0,1.0,88,0.00,,,0.02,WUHU216DAVISVP2,2013-04-30 02:19:00,
2013-04-29 22:24:00,57.2,53.4,30.00,WSW,251,0.0,1.0,87,0.00,,,0.02,WUHU216DAVISVP2,2013-04-30 02:24:00,
2013-04-29 22:29:00,56.8,53.3,30.00,WSW,251,0.0,1.0,88,0.00,,,0.02,WUHU216DAVISVP2,2013-04-30 02:29:00,
2013-04-29 22:34:00,56.4,53.2,30.00,WSW,252,0.0,1.0,89,0.00,,,0.02,WUHU216DAVISVP2,2013-04-30 02:34:00,
2013-04-29 22:39:00,56.2,53.0,30.01,WSW,252,0.0,0.0,89,0.00,,,0.02,WUHU216DAVISVP2,2013-04-30 02:39:00,
2013-04-29 22:44:00,55.8,52.6,30.01,WSW,252,0.0,0.0,89,0.00,,,0.02,WUHU216DAVISVP2,2013-04-30 02:44:00,
2013-04-29 22:49:00,55.4,52.2,30.01,WSW,251,0.0,0.0,89,0.00,,,0.02,WUHU216DAVISVP2,2013-04-30 02:49:00,
2013-04-29 22:54:00,55.1,52.2,30.01,WSW,252,0.0,0.0,90,0.00,,,0.02,WUHU216DAVISVP2,2013-04-30 02:54:00,
2013-04-29 22:59:00,55.1,52.5,30.01,WSW,252,0.0,0.0,91,0.00,,,0.02,WUHU216DAVISVP2,2013-04-30 02:59:00,
2013-04-29 23:04:00,55.1,52.5,30.00,WSW,252,0.0,0.0,91,0.00,,,0.02,WUHU216DAVISVP2,2013-04-30 03:04:00,
2013-04-29 23:09:00,55.0,52.4,30.00,WSW,251,0.0,0.0,91,0.00,,,0.02,WUHU216DAVISVP2,2013-04-30 03:09:00,
2013-04-29 23:14:00,54.7,51.8,30.00,WSW,252,0.0,0.0,90,0.00,,,0.02,WUHU216DAVISVP2,2013-04-30 03:14:00,
2013-04-29 23:19:00,54.0,50.8,30.00,WSW,251,0.0,0.0,89,0.00,,,0.02,WUHU216DAVISVP2,2013-04-30 03:19:00,
2013-04-29 23:24:00,53.5,50.9,30.01,WSW,251,0.0,0.0,91,0.00,,,0.02,WUHU216DAVISVP2,2013-04-30 03:24:00,
2013-04-29 23:29:00,53.3,51.0,30.01,WSW,251,0.0,0.0,92,0.00,,,0.02,WUHU216DAVISVP2,2013-04-30 03:29:00,
2013-04-29 23:34:00,53.2,50.9,30.01,WSW,252,0.0,0.0,92,0.00,,,0.02,WUHU216DAVISVP2,2013-04-30 03:34:00,
2013-04-29 23:39:00,52.9,50.6,30.01,WSW,252,0.0,0.0,92,0.00,,,0.02,WUHU216DAVISVP2,2013-04-30 03:39:00,
2013-04-29 23:44:00,52.4,50.1,30.01,WSW,251,0.0,0.0,92,0.00,,,0.02,WUHU216DAVISVP2,2013-04-30 03:44:00,
2013-04-29 23:49:00,51.9,49.6,30.01,WSW,251,0.0,0.0,92,0.00,,,0.02,WUHU216DAVISVP2,2013-04-30 03:49:00,
2013-04-29 23:54:00,52.2,50.2,30.01,WSW,252,0.0,0.0,93,0.00,,,0.02,WUHU216DAVISVP2,2013-04-30 03:54:00,
2013-04-29 23:59:00,52.3,50.3,30.01,WSW,251,0.0,0.0,93,0.00,,,0.02,WUHU216DAVISVP2,2013-04-30 03:59:00,